createdAt,value
2022-10-05T00:01:52.865Z,78.00
2022-10-05T00:04:22.878Z,78.37
2022-10-05T00:07:29.803Z,78.44
2022-10-05T00:09:59.963Z,78.40
2022-10-05T00:12:29.914Z,78.35
2022-10-05T00:15:01.228Z,78.42
2022-10-05T00:17:30.451Z,78.69
2022-10-05T00:19:57.643Z,78.04
2022-10-05T00:22:33.069Z,78.30
2022-10-05T00:25:03.140Z,78.03
2022-10-05T00:27:37.552Z,77.95
2022-10-05T00:30:17.150Z,78.32
2022-10-05T00:32:45.144Z,78.27
2022-10-05T00:35:13.745Z,78.23
2022-10-05T00:37:41.198Z,78.17
2022-10-05T00:40:29.215Z,78.04
2022-10-05T00:43:11.287Z,78.61
2022-10-05T00:45:46.059Z,78.33
2022-10-05T00:48:32.607Z,78.05
2022-10-05T00:51:24.031Z,78.15
2022-10-05T00:54:34.185Z,78.39
2022-10-05T00:57:25.165Z,78.15
2022-10-05T01:00:24.130Z,77.99
2022-10-05T01:02:57.983Z,78.06
2022-10-05T01:05:43.413Z,77.70
2022-10-05T01:08:32.039Z,78.04
2022-10-05T01:11:20.506Z,78.19
2022-10-05T01:13:59.856Z,77.58
2022-10-05T01:16:44.553Z,77.62
2022-10-05T01:19:20.774Z,77.86
2022-10-05T01:22:08.161Z,77.45
2022-10-05T01:25:07.799Z,77.87
2022-10-05T01:27:45.706Z,77.63
2022-10-05T01:30:15.743Z,77.53
2022-10-05T01:33:01.692Z,77.25
2022-10-05T01:35:45.972Z,77.90
2022-10-05T01:38:52.291Z,77.31
2022-10-05T01:41:40.201Z,77.71
2022-10-05T01:44:15.487Z,77.17
2022-10-05T01:46:46.176Z,77.68
2022-10-05T01:49:35.017Z,77.26
2022-10-05T01:52:13.204Z,77.46
2022-10-05T01:55:09.792Z,77.23
2022-10-05T01:58:01.136Z,77.02
2022-10-05T02:00:29.739Z,76.95
2022-10-05T02:03:25.215Z,77.04
2022-10-05T02:06:00.468Z,76.54
2022-10-05T02:08:36.950Z,76.26
2022-10-05T02:11:07.888Z,76.30
2022-10-05T02:13:46.903Z,76.25
2022-10-05T02:16:24.949Z,76.72
2022-10-05T02:19:01.572Z,76.35
2022-10-05T02:21:33.606Z,76.13
2022-10-05T02:24:11.634Z,76.21
2022-10-05T02:26:40.542Z,76.09
2022-10-05T02:29:11.606Z,76.02
2022-10-05T02:31:46.160Z,75.92
2022-10-05T02:34:25.691Z,76.00
2022-10-05T02:37:34.453Z,76.02
2022-10-05T02:40:08.885Z,75.97
2022-10-05T02:43:08.117Z,75.89
2022-10-05T02:45:51.299Z,75.70
2022-10-05T02:48:33.753Z,75.61
2022-10-05T02:51:19.332Z,75.41
2022-10-05T02:53:47.103Z,75.78
2022-10-05T02:56:14.046Z,75.23
2022-10-05T02:59:07.281Z,75.27
2022-10-05T03:01:46.947Z,75.30
2022-10-05T03:04:46.874Z,74.79
2022-10-05T03:07:23.829Z,75.54
2022-10-05T03:10:02.668Z,75.05
2022-10-05T03:13:01.788Z,75.14
2022-10-05T03:15:43.845Z,74.92
2022-10-05T03:18:16.847Z,74.89
2022-10-05T03:20:56.015Z,74.55
2022-10-05T03:23:44.831Z,75.01
2022-10-05T03:26:19.162Z,74.70
2022-10-05T03:29:03.234Z,74.43
2022-10-05T03:31:42.413Z,74.60
2022-10-05T03:34:26.452Z,74.46
2022-10-05T03:37:10.404Z,74.26
2022-10-05T03:40:01.512Z,74.28
2022-10-05T03:42:37.833Z,74.48
2022-10-05T03:45:23.368Z,74.22
2022-10-05T03:48:01.472Z,73.98
2022-10-05T03:50:37.022Z,74.50
2022-10-05T03:53:10.918Z,74.23
2022-10-05T03:55:47.245Z,73.77
2022-10-05T03:58:41.058Z,73.90
2022-10-05T04:01:18.818Z,73.79
2022-10-05T04:04:09.949Z,73.98
2022-10-05T04:06:45.840Z,73.53
2022-10-05T04:09:36.774Z,74.02
2022-10-05T04:12:35.989Z,73.93
2022-10-05T04:15:18.850Z,73.69
2022-10-05T04:17:52.064Z,74.00
2022-10-05T04:20:25.225Z,74.13
2022-10-05T04:23:19.407Z,74.18
2022-10-05T04:25:53.940Z,73.56
2022-10-05T04:28:32.184Z,73.71
2022-10-05T04:31:04.561Z,74.00
2022-10-05T04:33:32.981Z,73.79
2022-10-05T04:36:09.788Z,73.68
2022-10-05T04:38:55.972Z,73.86
2022-10-05T04:41:50.937Z,73.82
2022-10-05T04:44:33.251Z,73.89
2022-10-05T04:47:36.110Z,73.81
2022-10-05T04:50:34.675Z,74.18
2022-10-05T04:53:28.118Z,73.98
2022-10-05T04:56:07.079Z,73.88
2022-10-05T04:58:43.196Z,74.08
2022-10-05T05:01:20.913Z,74.17
2022-10-05T05:04:10.674Z,73.77
2022-10-05T05:07:07.208Z,74.01
2022-10-05T05:09:53.463Z,74.37
2022-10-05T05:13:06.752Z,74.25
2022-10-05T05:15:48.938Z,74.79
2022-10-05T05:18:31.412Z,74.88
2022-10-05T05:21:33.095Z,75.18
2022-10-05T05:24:38.586Z,75.65
2022-10-05T05:27:24.749Z,76.29
2022-10-05T05:30:12.806Z,76.77
2022-10-05T05:33:03.974Z,77.21
2022-10-05T05:35:57.468Z,78.12
2022-10-05T05:38:24.512Z,78.10
2022-10-05T05:41:09.663Z,77.26
2022-10-05T05:43:47.106Z,77.17
2022-10-05T05:46:44.698Z,76.35
2022-10-05T05:49:22.898Z,75.11
2022-10-05T05:51:58.227Z,73.97
2022-10-05T05:54:31.394Z,73.82
2022-10-05T05:57:09.083Z,73.65
2022-10-05T06:00:14.732Z,73.58
2022-10-05T06:03:04.472Z,73.58
2022-10-05T06:05:45.510Z,73.31
2022-10-05T06:08:19.875Z,71.99
2022-10-05T06:10:59.287Z,71.36
2022-10-05T06:13:34.378Z,70.75
2022-10-05T06:16:15.125Z,70.19
2022-10-05T06:18:57.508Z,70.38
2022-10-05T06:21:42.179Z,70.38
2022-10-05T06:24:25.572Z,70.94
2022-10-05T06:27:19.845Z,71.39
2022-10-05T06:29:58.140Z,71.38
2022-10-05T06:32:50.124Z,71.70
2022-10-05T06:35:49.403Z,71.90
2022-10-05T06:38:54.156Z,72.23
2022-10-05T06:41:24.173Z,72.69
2022-10-05T06:44:09.688Z,72.60
2022-10-05T06:47:00.129Z,73.28
2022-10-05T06:49:47.653Z,72.86
2022-10-05T06:52:49.128Z,71.36
2022-10-05T06:55:36.403Z,71.42
2022-10-05T06:58:31.865Z,71.61
2022-10-05T07:01:02.011Z,71.22
2022-10-05T07:03:47.683Z,70.99
2022-10-05T07:06:38.067Z,70.65
2022-10-05T07:09:18.503Z,70.38
2022-10-05T07:12:04.568Z,70.80
2022-10-05T07:14:46.095Z,70.81
2022-10-05T07:17:13.737Z,70.25
2022-10-05T07:19:55.941Z,70.24
2022-10-05T07:22:34.243Z,70.27
2022-10-05T07:25:12.455Z,70.80
2022-10-05T07:27:59.046Z,70.67
2022-10-05T07:30:26.386Z,69.01
2022-10-05T07:33:09.257Z,69.15
2022-10-05T07:36:05.668Z,69.09
2022-10-05T07:38:49.018Z,69.24
2022-10-05T07:41:23.085Z,68.67
2022-10-05T07:44:12.610Z,68.94
2022-10-05T07:46:51.933Z,69.01
2022-10-05T07:49:31.656Z,68.01
2022-10-05T07:52:02.995Z,67.23
2022-10-05T07:55:01.992Z,67.90
2022-10-05T07:57:41.250Z,67.10
2022-10-05T08:00:43.285Z,64.53
2022-10-05T08:03:26.545Z,65.88
2022-10-05T08:05:54.271Z,66.54
2022-10-05T08:08:24.082Z,66.53
2022-10-05T08:11:10.303Z,66.58
2022-10-05T08:13:58.640Z,67.43
2022-10-05T08:16:30.860Z,67.57
2022-10-05T08:19:06.729Z,67.62
2022-10-05T08:21:43.282Z,67.40
2022-10-05T08:24:38.067Z,66.97
2022-10-05T08:27:34.131Z,66.51
2022-10-05T08:30:12.428Z,67.51
2022-10-05T08:33:01.171Z,67.45
2022-10-05T08:35:55.880Z,66.71
2022-10-05T08:38:31.718Z,67.09
2022-10-05T08:41:10.776Z,66.66
2022-10-05T08:43:59.449Z,67.25
2022-10-05T08:47:05.537Z,66.38
2022-10-05T08:49:35.546Z,65.74
2022-10-05T08:52:24.420Z,65.54
2022-10-05T08:55:09.682Z,65.49
2022-10-05T08:57:51.301Z,65.31
2022-10-05T09:00:23.520Z,63.57
2022-10-05T09:03:05.655Z,64.08
2022-10-05T09:06:04.052Z,62.33
2022-10-05T09:08:58.703Z,61.96
2022-10-05T09:11:38.950Z,61.75
2022-10-05T09:14:06.006Z,61.21
2022-10-05T09:16:48.597Z,60.82
2022-10-05T09:19:40.021Z,60.21
2022-10-05T09:22:32.673Z,60.20
2022-10-05T09:25:14.358Z,61.23
2022-10-05T09:27:53.746Z,61.06
2022-10-05T09:30:29.913Z,60.41
2022-10-05T09:33:26.020Z,59.85
2022-10-05T09:36:34.076Z,61.22
2022-10-05T09:39:13.176Z,60.00
2022-10-05T09:41:39.964Z,61.45
2022-10-05T09:44:56.420Z,59.68
2022-10-05T09:47:35.146Z,60.28
2022-10-05T09:50:23.503Z,59.65
2022-10-05T09:53:24.700Z,57.72
2022-10-05T09:56:50.429Z,57.79
2022-10-05T09:59:53.903Z,58.13
2022-10-05T10:02:42.362Z,58.32
2022-10-05T10:05:26.991Z,59.32
2022-10-05T10:08:12.659Z,59.25
2022-10-05T10:10:54.817Z,59.01
2022-10-05T10:13:46.237Z,59.17
2022-10-05T10:16:23.585Z,59.55
2022-10-05T10:19:03.072Z,59.92
2022-10-05T10:21:30.195Z,60.12
2022-10-05T10:24:23.781Z,60.40
2022-10-05T10:27:35.692Z,60.93
2022-10-05T10:30:08.449Z,60.70
2022-10-05T10:32:57.810Z,60.46
2022-10-05T10:35:27.650Z,60.25
2022-10-05T10:38:28.743Z,60.34
2022-10-05T10:41:04.545Z,59.76
2022-10-05T10:43:46.554Z,60.50
2022-10-05T10:46:15.946Z,60.39
2022-10-05T10:48:50.046Z,60.72
2022-10-05T10:51:47.530Z,60.42
2022-10-05T10:54:15.045Z,60.71
2022-10-05T10:57:04.158Z,60.66
2022-10-05T10:59:41.653Z,60.27
2022-10-05T11:02:17.655Z,60.10
2022-10-05T11:05:09.293Z,59.58
2022-10-05T11:07:54.989Z,59.31
2022-10-05T11:10:34.192Z,59.21
2022-10-05T11:13:34.965Z,59.17
2022-10-05T11:16:28.210Z,59.92
2022-10-05T11:19:20.465Z,58.91
2022-10-05T11:22:05.586Z,58.85
2022-10-05T11:24:54.766Z,58.14
2022-10-05T11:27:37.311Z,59.02
2022-10-05T11:30:39.004Z,59.33
2022-10-05T11:33:53.509Z,59.00
2022-10-05T11:36:32.490Z,59.48
2022-10-05T11:39:23.307Z,60.07
2022-10-05T11:42:09.968Z,60.38
2022-10-05T11:45:11.843Z,59.87
2022-10-05T11:48:03.214Z,59.18
2022-10-05T11:50:39.705Z,58.73
2022-10-05T11:53:19.932Z,59.80
2022-10-05T11:55:57.734Z,59.46
2022-10-05T11:58:43.817Z,59.61
2022-10-05T12:01:27.787Z,57.58
2022-10-05T12:04:17.339Z,57.89
2022-10-05T12:06:58.837Z,57.89
2022-10-05T12:10:30.086Z,58.11
2022-10-05T12:13:19.459Z,58.31
2022-10-05T12:16:22.734Z,59.14
2022-10-05T12:18:56.229Z,60.04
2022-10-05T12:21:33.056Z,57.73
2022-10-05T12:24:14.190Z,57.88
2022-10-05T12:26:50.119Z,57.58
2022-10-05T12:29:43.126Z,57.90
2022-10-05T12:32:24.030Z,58.21
2022-10-05T12:35:01.880Z,58.06
2022-10-05T12:37:48.744Z,58.48
2022-10-05T12:40:35.843Z,58.41
2022-10-05T12:43:32.813Z,58.90
2022-10-05T12:46:24.336Z,58.75
2022-10-05T12:49:12.736Z,57.95
2022-10-05T12:52:00.933Z,58.41
2022-10-05T12:54:45.054Z,58.39
2022-10-05T12:57:17.967Z,58.41
2022-10-05T12:59:54.027Z,58.53
2022-10-05T13:02:51.086Z,57.68
2022-10-05T13:05:30.122Z,58.77
2022-10-05T13:08:12.899Z,58.98
2022-10-05T13:10:53.681Z,58.56
2022-10-05T13:13:36.066Z,58.90
2022-10-05T13:16:08.234Z,58.78
2022-10-05T13:18:58.879Z,58.95
2022-10-05T13:22:04.281Z,57.75
2022-10-05T13:24:59.384Z,58.89
2022-10-05T13:27:36.800Z,58.88
2022-10-05T13:30:06.648Z,59.25
2022-10-05T13:32:42.001Z,59.19
2022-10-05T13:35:40.274Z,59.49
2022-10-05T13:38:24.667Z,59.94
2022-10-05T13:41:17.665Z,59.69
2022-10-05T13:44:07.370Z,59.74
2022-10-05T13:46:48.943Z,60.28
2022-10-05T13:49:39.295Z,60.21
2022-10-05T13:52:25.400Z,60.28
2022-10-05T13:55:01.982Z,59.48
2022-10-05T13:57:29.926Z,59.41
2022-10-05T14:00:14.487Z,58.91
2022-10-05T14:02:45.306Z,57.41
2022-10-05T14:05:29.173Z,58.10
2022-10-05T14:08:02.283Z,58.10
2022-10-05T14:10:38.919Z,58.38
2022-10-05T14:13:27.371Z,58.03
2022-10-05T14:16:20.722Z,57.75
2022-10-05T14:18:56.617Z,56.05
2022-10-05T14:21:28.741Z,56.27
2022-10-05T14:23:58.730Z,56.39
2022-10-05T14:26:25.483Z,56.34
2022-10-05T14:29:14.106Z,57.12
2022-10-05T14:32:03.120Z,57.05
2022-10-05T14:34:42.073Z,56.96
2022-10-05T14:37:24.777Z,56.69
2022-10-05T14:39:59.192Z,56.85
2022-10-05T14:42:30.672Z,56.31
2022-10-05T14:45:20.861Z,56.50
2022-10-05T14:47:51.834Z,56.51
2022-10-05T14:50:26.125Z,56.30
2022-10-05T14:53:11.465Z,56.29
2022-10-05T14:56:06.343Z,56.27
2022-10-05T14:58:42.974Z,55.08
2022-10-05T15:01:16.851Z,54.88
2022-10-05T15:04:01.244Z,55.53
2022-10-05T15:06:41.706Z,56.00
2022-10-05T15:09:45.228Z,56.59
2022-10-05T15:12:19.427Z,56.66
2022-10-05T15:14:47.476Z,57.11
2022-10-05T15:17:20.291Z,57.01
2022-10-05T15:20:18.335Z,57.98
2022-10-05T15:23:00.432Z,57.63
2022-10-05T15:25:51.914Z,59.02
2022-10-05T15:28:41.279Z,59.44
2022-10-05T15:31:16.452Z,59.51
2022-10-05T15:33:53.674Z,60.60
2022-10-05T15:36:32.472Z,60.21
2022-10-05T15:39:00.604Z,59.56
2022-10-05T15:41:37.005Z,60.76
2022-10-05T15:44:26.075Z,61.74
2022-10-05T15:47:01.382Z,63.03
2022-10-05T15:49:38.924Z,62.65
2022-10-05T15:52:34.670Z,61.81
2022-10-05T15:55:16.137Z,62.56
2022-10-05T15:57:43.136Z,62.14
2022-10-05T16:00:22.037Z,62.17
2022-10-05T16:03:13.997Z,61.84
2022-10-05T16:06:04.117Z,62.25
2022-10-05T16:08:54.203Z,62.45
2022-10-05T16:11:43.052Z,62.71
2022-10-05T16:14:28.808Z,63.05
2022-10-05T16:16:57.638Z,63.35
2022-10-05T16:20:00.916Z,63.42
2022-10-05T16:22:59.694Z,63.43
2022-10-05T16:25:47.541Z,63.33
2022-10-05T16:28:41.982Z,63.61
2022-10-05T16:31:19.094Z,63.06
2022-10-05T16:33:58.256Z,63.51
2022-10-05T16:36:59.630Z,63.03
2022-10-05T16:39:45.259Z,62.82
2022-10-05T16:42:18.151Z,62.68
2022-10-05T16:45:27.466Z,62.69
2022-10-05T16:48:15.209Z,62.27
2022-10-05T16:51:09.914Z,62.04
2022-10-05T16:53:51.003Z,62.07
2022-10-05T16:56:27.198Z,62.29
2022-10-05T16:58:56.638Z,62.13
2022-10-05T17:01:43.240Z,62.07
2022-10-05T17:04:31.903Z,62.43
2022-10-05T17:07:14.914Z,62.99
2022-10-05T17:09:56.920Z,62.57
2022-10-05T17:12:40.008Z,62.60
2022-10-05T17:15:33.750Z,62.62
2022-10-05T17:18:27.523Z,62.50
2022-10-05T17:21:02.534Z,62.88
2022-10-05T17:23:51.851Z,63.17
2022-10-05T17:26:52.701Z,62.16
2022-10-05T17:29:24.011Z,62.47
2022-10-05T17:32:05.963Z,62.40
2022-10-05T17:34:36.696Z,62.20
2022-10-05T17:37:28.150Z,61.73
2022-10-05T17:39:56.567Z,61.50
2022-10-05T17:42:26.678Z,61.59
2022-10-05T17:45:14.745Z,61.84
2022-10-05T17:48:01.538Z,61.85
2022-10-05T17:50:56.391Z,61.84
2022-10-05T17:53:53.369Z,61.99
2022-10-05T17:56:22.211Z,62.01
2022-10-05T17:58:55.082Z,62.08
2022-10-05T18:01:40.896Z,61.56
2022-10-05T18:04:14.151Z,61.85
2022-10-05T18:07:05.399Z,62.07
2022-10-05T18:09:37.542Z,62.05
2022-10-05T18:12:18.232Z,61.94
2022-10-05T18:15:06.576Z,62.24
2022-10-05T18:17:51.357Z,62.24
2022-10-05T18:20:24.239Z,61.71
2022-10-05T18:22:53.693Z,62.01
2022-10-05T18:25:34.071Z,62.08
2022-10-05T18:28:20.738Z,62.19
2022-10-05T18:31:06.326Z,62.51
2022-10-05T18:33:42.415Z,62.40
2022-10-05T18:36:44.560Z,63.04
2022-10-05T18:39:49.252Z,63.16
2022-10-05T18:42:27.508Z,63.01
2022-10-05T18:45:04.257Z,63.49
2022-10-05T18:47:46.689Z,63.14
2022-10-05T18:50:34.072Z,63.32
2022-10-05T18:53:16.665Z,63.27
2022-10-05T18:55:55.846Z,63.57
2022-10-05T18:58:35.205Z,63.61
2022-10-05T19:01:34.831Z,63.77
2022-10-05T19:04:14.041Z,63.90
2022-10-05T19:06:53.186Z,63.98
2022-10-05T19:09:32.013Z,64.29
2022-10-05T19:12:26.377Z,64.67
2022-10-05T19:15:07.010Z,64.57
2022-10-05T19:18:06.147Z,64.90
2022-10-05T19:20:47.144Z,65.25
2022-10-05T19:23:18.198Z,65.27
2022-10-05T19:25:53.160Z,65.25
2022-10-05T19:28:34.333Z,64.97
2022-10-05T19:31:20.566Z,65.57
2022-10-05T19:33:58.015Z,65.59
2022-10-05T19:36:34.069Z,65.79
2022-10-05T19:39:12.102Z,65.51
2022-10-05T19:41:42.082Z,65.29
2022-10-05T19:44:27.996Z,65.13
2022-10-05T19:46:58.118Z,65.09
2022-10-05T19:49:56.932Z,64.96
2022-10-05T19:52:47.527Z,65.21
2022-10-05T19:55:26.566Z,64.96
2022-10-05T19:57:57.774Z,64.71
2022-10-05T20:00:35.540Z,64.80
2022-10-05T20:03:23.522Z,64.74
2022-10-05T20:05:50.530Z,64.77
2022-10-05T20:08:19.723Z,64.91
2022-10-05T20:11:27.257Z,65.10
2022-10-05T20:13:54.939Z,65.43
2022-10-05T20:19:52.389Z,65.23
2022-10-05T20:22:34.382Z,65.09
2022-10-05T20:25:03.413Z,65.27
2022-10-05T20:27:39.730Z,65.47
2022-10-05T20:30:09.245Z,65.80
2022-10-05T20:32:36.048Z,65.40
2022-10-05T20:35:03.658Z,65.56
2022-10-05T20:37:31.310Z,65.68
2022-10-05T20:39:58.721Z,65.73
2022-10-05T20:42:26.750Z,65.96
2022-10-05T20:44:56.902Z,65.82
2022-10-05T20:47:24.620Z,66.18
2022-10-05T20:49:53.441Z,66.09
2022-10-05T20:52:20.663Z,66.11
2022-10-05T20:54:48.016Z,66.21
2022-10-05T20:57:15.068Z,66.16
2022-10-05T20:59:41.839Z,66.18
2022-10-05T21:02:09.862Z,66.22
2022-10-05T21:04:41.461Z,66.53
2022-10-05T21:07:08.969Z,66.58
2022-10-05T21:09:38.489Z,66.34
2022-10-05T21:12:05.593Z,66.42
2022-10-05T21:14:34.525Z,66.43
2022-10-05T21:17:02.193Z,66.49
2022-10-05T21:19:29.923Z,66.52
2022-10-05T21:21:59.677Z,67.00
2022-10-05T21:24:26.748Z,67.28
2022-10-05T21:26:56.794Z,67.27
2022-10-05T21:29:23.765Z,67.26
2022-10-05T21:31:51.170Z,67.42
2022-10-05T21:34:18.139Z,67.32
2022-10-05T21:36:45.195Z,67.37
2022-10-05T21:39:11.992Z,67.70
2022-10-05T21:41:38.879Z,67.39
2022-10-05T21:44:06.336Z,67.25
2022-10-05T21:46:35.936Z,66.97
2022-10-05T21:49:02.918Z,67.27
2022-10-05T21:51:29.935Z,67.03
2022-10-05T21:53:57.755Z,67.40
2022-10-05T21:56:29.440Z,67.36
2022-10-05T21:58:57.707Z,67.37
2022-10-05T22:01:24.618Z,67.27
2022-10-05T22:03:51.869Z,67.37
2022-10-05T22:06:18.771Z,67.28
2022-10-05T22:08:46.881Z,67.30
2022-10-05T22:11:16.870Z,67.24
2022-10-05T22:13:49.590Z,67.41
2022-10-05T22:16:19.148Z,67.16
2022-10-05T22:18:46.204Z,67.16
2022-10-05T22:21:14.092Z,66.71
2022-10-05T22:23:42.343Z,66.94
2022-10-05T22:26:11.555Z,67.38
2022-10-05T22:28:39.690Z,67.03
2022-10-05T22:31:09.559Z,67.27
2022-10-05T22:33:37.199Z,67.25
2022-10-05T22:36:05.585Z,67.43
2022-10-05T22:38:32.792Z,67.43
2022-10-05T22:40:59.659Z,67.48
2022-10-05T22:43:29.497Z,67.51
2022-10-05T22:45:56.819Z,67.40
2022-10-05T22:48:25.336Z,67.50
2022-10-05T22:50:52.527Z,67.63
2022-10-05T22:53:19.493Z,67.62
2022-10-05T22:55:47.752Z,67.89
2022-10-05T22:58:14.950Z,67.90
2022-10-05T23:00:57.696Z,67.76
2022-10-05T23:03:25.561Z,67.69
2022-10-05T23:06:04.315Z,67.69
2022-10-05T23:08:33.272Z,67.31
2022-10-05T23:11:23.647Z,67.33
2022-10-05T23:13:52.324Z,67.51
2022-10-05T23:16:21.987Z,67.84
2022-10-05T23:18:50.567Z,67.77
2022-10-05T23:21:19.634Z,67.88
2022-10-05T23:23:48.950Z,67.63
2022-10-05T23:26:17.822Z,67.80
2022-10-05T23:28:49.734Z,67.74
2022-10-05T23:31:19.429Z,67.68
2022-10-05T23:33:46.768Z,67.75
2022-10-05T23:36:17.775Z,67.88
2022-10-05T23:38:45.479Z,67.51
2022-10-05T23:41:13.290Z,67.79
2022-10-05T23:43:40.518Z,68.16
2022-10-05T23:46:09.567Z,68.16
2022-10-05T23:48:39.420Z,68.07
2022-10-05T23:51:08.484Z,68.14
2022-10-05T23:53:35.859Z,68.02
2022-10-05T23:56:03.165Z,67.87
2022-10-05T23:58:31.313Z,67.85
